createdAt,value
2018-11-13T00:00:04.014Z,5.71
2018-11-13T00:00:08.220Z,5.7
2018-11-13T00:00:12.431Z,5.7
2018-11-13T00:00:16.529Z,5.7
2018-11-13T00:00:20.844Z,5.71
2018-11-13T00:00:25.159Z,5.7
2018-11-13T00:00:29.472Z,5.71
2018-11-13T00:00:33.799Z,5.7
2018-11-13T00:00:37.904Z,5.7
2018-11-13T00:00:42.105Z,5.69
2018-11-13T00:00:46.426Z,5.7
2018-11-13T00:00:50.633Z,5.7
2018-11-13T00:00:54.843Z,5.7
2018-11-13T00:00:59.048Z,5.7
2018-11-13T00:01:03.309Z,5.7
2018-11-13T00:01:07.623Z,5.7
2018-11-13T00:01:11.933Z,5.7
2018-11-13T00:01:16.238Z,5.69
2018-11-13T00:01:20.442Z,5.69
2018-11-13T00:01:24.541Z,5.69
2018-11-13T00:01:28.642Z,5.68
2018-11-13T00:01:32.743Z,5.69
2018-11-13T00:01:37.058Z,5.68
2018-11-13T00:01:41.365Z,5.69
2018-11-13T00:01:45.464Z,5.7
2018-11-13T00:01:49.662Z,5.69
2018-11-13T00:01:53.867Z,5.69
2018-11-13T00:01:57.968Z,5.69
2018-11-13T00:02:02.166Z,5.69
2018-11-13T00:02:06.167Z,5.68
2018-11-13T00:02:10.372Z,5.68
2018-11-13T00:02:14.575Z,5.68
2018-11-13T00:02:18.884Z,5.68
2018-11-13T00:02:23.083Z,5.67
2018-11-13T00:02:27.397Z,5.68
2018-11-13T00:02:31.710Z,5.67
2018-11-13T00:02:35.911Z,5.67
2018-11-13T00:02:40.160Z,5.67
2018-11-13T00:02:44.359Z,5.67
2018-11-13T00:02:48.566Z,5.67
2018-11-13T00:02:52.883Z,5.68
2018-11-13T00:02:57.094Z,5.67
2018-11-13T00:03:01.409Z,5.67
2018-11-13T00:03:05.617Z,5.67
2018-11-13T00:03:09.815Z,5.66
2018-11-13T00:03:14.125Z,5.66
2018-11-13T00:03:18.329Z,5.67
2018-11-13T00:03:22.529Z,5.67
2018-11-13T00:03:26.847Z,5.66
2018-11-13T00:03:31.163Z,5.66
2018-11-13T00:03:35.376Z,5.66
2018-11-13T00:03:39.365Z,5.66
2018-11-13T00:03:43.562Z,5.65
2018-11-13T00:03:47.655Z,5.65
2018-11-13T00:03:51.749Z,5.65
2018-11-13T00:03:55.954Z,5.64
2018-11-13T00:04:00.311Z,5.65
2018-11-13T00:04:04.411Z,5.65
2018-11-13T00:04:08.713Z,5.64
2018-11-13T00:04:13.023Z,5.64
2018-11-13T00:04:17.227Z,5.64
2018-11-13T00:04:21.540Z,5.63
2018-11-13T00:04:25.653Z,5.64
2018-11-13T00:04:29.749Z,5.63
2018-11-13T00:04:34.057Z,5.63
2018-11-13T00:04:38.307Z,5.63
2018-11-13T00:04:42.609Z,5.63
2018-11-13T00:04:46.723Z,5.63
2018-11-13T00:04:51.031Z,5.63
2018-11-13T00:04:55.237Z,5.63
2018-11-13T00:04:59.550Z,5.63
2018-11-13T00:05:03.546Z,5.63
2018-11-13T00:05:07.856Z,5.62
2018-11-13T00:05:12.159Z,5.62
2018-11-13T00:05:16.267Z,5.63
2018-11-13T00:05:20.488Z,5.62
2018-11-13T00:05:24.853Z,5.62
2018-11-13T00:05:29.156Z,5.62
2018-11-13T00:05:33.363Z,5.62
2018-11-13T00:05:37.675Z,5.62
2018-11-13T00:05:41.990Z,5.62
2018-11-13T00:05:46.189Z,5.62
2018-11-13T00:05:50.283Z,5.63
2018-11-13T00:05:54.480Z,5.62
2018-11-13T00:05:58.684Z,5.62
2018-11-13T00:06:02.892Z,5.62
2018-11-13T00:06:07.205Z,5.62
2018-11-13T00:06:11.506Z,5.62
2018-11-13T00:06:15.811Z,5.62
2018-11-13T00:06:20.007Z,5.62
2018-11-13T00:06:24.106Z,5.62
2018-11-13T00:06:28.210Z,5.61
2018-11-13T00:06:32.415Z,5.62
2018-11-13T00:06:36.517Z,5.6
2018-11-13T00:06:40.612Z,5.6
2018-11-13T00:06:44.822Z,5.6
2018-11-13T00:06:49.029Z,5.62
2018-11-13T00:06:53.119Z,5.61
2018-11-13T00:06:57.212Z,5.61
2018-11-13T00:07:01.412Z,5.61
2018-11-13T00:07:05.550Z,5.6
2018-11-13T00:07:09.753Z,5.6
2018-11-13T00:07:14.069Z,5.61
2018-11-13T00:07:18.277Z,5.61
2018-11-13T00:07:22.484Z,5.61
2018-11-13T00:07:26.581Z,5.6
2018-11-13T00:07:30.784Z,5.61
2018-11-13T00:07:34.984Z,5.61
2018-11-13T00:07:39.306Z,5.61
2018-11-13T00:07:43.618Z,5.6
2018-11-13T00:07:47.816Z,5.61
2018-11-13T00:07:52.024Z,5.6
2018-11-13T00:07:56.242Z,5.6
2018-11-13T00:08:00.343Z,5.6
2018-11-13T00:08:04.548Z,5.59
2018-11-13T00:08:08.754Z,5.61
2018-11-13T00:08:13.061Z,5.6
2018-11-13T00:08:17.269Z,5.61
2018-11-13T00:08:21.481Z,5.6
2018-11-13T00:08:25.794Z,5.6
2018-11-13T00:08:30.103Z,5.6
2018-11-13T00:08:34.307Z,5.6
2018-11-13T00:08:38.451Z,5.6
2018-11-13T00:08:42.755Z,5.6
2018-11-13T00:08:46.741Z,5.59
2018-11-13T00:08:51.058Z,5.6
2018-11-13T00:08:55.267Z,5.6
2018-11-13T00:08:59.464Z,5.6
2018-11-13T00:09:03.570Z,5.6
2018-11-13T00:09:07.884Z,5.6
2018-11-13T00:09:12.195Z,5.6
2018-11-13T00:09:16.504Z,5.6
2018-11-13T00:09:20.818Z,5.6
2018-11-13T00:09:25.021Z,5.61
2018-11-13T00:09:29.009Z,5.6
2018-11-13T00:09:33.224Z,5.62
2018-11-13T00:09:37.427Z,5.61
2018-11-13T00:09:41.520Z,5.61
2018-11-13T00:09:45.831Z,5.61
2018-11-13T00:09:50.030Z,5.6
2018-11-13T00:09:54.124Z,5.61
2018-11-13T00:09:58.323Z,5.6
2018-11-13T00:10:02.313Z,5.61
2018-11-13T00:10:06.303Z,5.62
2018-11-13T00:10:10.294Z,5.62
2018-11-13T00:10:14.493Z,5.62
2018-11-13T00:10:18.686Z,5.62
2018-11-13T00:10:22.998Z,5.62
2018-11-13T00:10:27.093Z,5.61
2018-11-13T00:10:31.405Z,5.63
2018-11-13T00:10:35.606Z,5.62
2018-11-13T00:10:39.913Z,5.62
2018-11-13T00:10:44.120Z,5.63
2018-11-13T00:10:48.216Z,5.63
2018-11-13T00:10:52.527Z,5.63
2018-11-13T00:10:56.628Z,5.62
2018-11-13T00:11:00.832Z,5.63
2018-11-13T00:11:04.712Z,5.64
2018-11-13T00:11:09.051Z,5.63
2018-11-13T00:11:13.635Z,5.64
2018-11-13T00:11:17.964Z,5.64
2018-11-13T00:11:22.303Z,5.64
2018-11-13T00:11:26.872Z,5.64
2018-11-13T00:11:31.936Z,5.64
2018-11-13T00:11:37.098Z,5.64
2018-11-13T00:11:41.691Z,5.65
2018-11-13T00:11:45.473Z,5.65
2018-11-13T00:11:49.788Z,5.65
2018-11-13T00:11:53.987Z,5.65
2018-11-13T00:11:58.294Z,5.66
2018-11-13T00:12:02.648Z,5.65
2018-11-13T00:12:06.530Z,5.66
2018-11-13T00:12:10.840Z,5.66
2018-11-13T00:12:14.827Z,5.67
2018-11-13T00:12:18.929Z,5.66
2018-11-13T00:12:23.246Z,5.67
2018-11-13T00:12:27.443Z,5.66
2018-11-13T00:12:31.538Z,5.67
2018-11-13T00:12:35.525Z,5.68
2018-11-13T00:12:39.618Z,5.67
2018-11-13T00:12:43.717Z,5.67
2018-11-13T00:12:47.810Z,5.68
2018-11-13T00:12:52.017Z,5.68
2018-11-13T00:12:56.340Z,5.67
2018-11-13T00:13:00.651Z,5.68
2018-11-13T00:13:04.757Z,5.68
2018-11-13T00:13:08.968Z,5.68
2018-11-13T00:13:13.066Z,5.68
2018-11-13T00:13:17.385Z,5.68
2018-11-13T00:13:21.597Z,5.69
2018-11-13T00:13:25.803Z,5.68
2018-11-13T00:13:30.119Z,5.69
2018-11-13T00:13:34.330Z,5.69
2018-11-13T00:13:38.528Z,5.69
2018-11-13T00:13:42.848Z,5.69
2018-11-13T00:13:47.166Z,5.69
2018-11-13T00:13:51.478Z,5.69
2018-11-13T00:13:55.677Z,5.7
2018-11-13T00:13:59.981Z,5.69
2018-11-13T00:14:04.092Z,5.7
2018-11-13T00:14:08.302Z,5.69
2018-11-13T00:14:12.502Z,5.71
2018-11-13T00:14:16.702Z,5.71
2018-11-13T00:14:20.908Z,5.7
2018-11-13T00:14:25.121Z,5.7
2018-11-13T00:14:29.215Z,5.7
2018-11-13T00:14:33.308Z,5.7
2018-11-13T00:14:37.622Z,5.7
2018-11-13T00:14:41.933Z,5.7
2018-11-13T00:14:46.244Z,5.7
2018-11-13T00:14:50.339Z,5.7
2018-11-13T00:14:54.538Z,5.71
2018-11-13T00:14:58.682Z,5.71
2018-11-13T00:15:03.005Z,5.71
2018-11-13T00:15:07.118Z,5.71
2018-11-13T00:15:11.325Z,5.71
2018-11-13T00:15:15.519Z,5.71
2018-11-13T00:15:19.841Z,5.71
2018-11-13T00:15:24.159Z,5.71
2018-11-13T00:15:28.369Z,5.71
2018-11-13T00:15:32.573Z,5.72
2018-11-13T00:15:36.882Z,5.72
2018-11-13T00:15:40.978Z,5.71
2018-11-13T00:15:45.290Z,5.71
2018-11-13T00:15:49.599Z,5.71
2018-11-13T00:15:53.901Z,5.72
2018-11-13T00:15:57.782Z,5.72
2018-11-13T00:16:02.101Z,5.71
2018-11-13T00:16:06.418Z,5.73
2018-11-13T00:16:10.517Z,5.72
2018-11-13T00:16:14.826Z,5.73
2018-11-13T00:16:19.135Z,5.73
2018-11-13T00:16:23.338Z,5.73
2018-11-13T00:16:27.539Z,5.73
2018-11-13T00:16:31.735Z,5.73
2018-11-13T00:16:36.044Z,5.72
2018-11-13T00:16:40.237Z,5.73
2018-11-13T00:16:44.439Z,5.73
2018-11-13T00:16:48.532Z,5.73
2018-11-13T00:16:52.843Z,5.72
2018-11-13T00:16:57.044Z,5.73
2018-11-13T00:17:01.349Z,5.73
2018-11-13T00:17:05.552Z,5.73
2018-11-13T00:17:09.862Z,5.74
2018-11-13T00:17:14.183Z,5.74
2018-11-13T00:17:18.382Z,5.74
2018-11-13T00:17:22.486Z,5.74
2018-11-13T00:17:26.791Z,5.73
2018-11-13T00:17:30.987Z,5.74
2018-11-13T00:17:35.288Z,5.73
2018-11-13T00:17:39.496Z,5.74
2018-11-13T00:17:43.827Z,5.74
2018-11-13T00:17:48.147Z,5.74
2018-11-13T00:17:52.470Z,5.74
2018-11-13T00:17:56.790Z,5.74
2018-11-13T00:18:00.988Z,5.73
2018-11-13T00:18:05.090Z,5.74
2018-11-13T00:18:09.188Z,5.74
2018-11-13T00:18:13.381Z,5.74
2018-11-13T00:18:17.581Z,5.74
2018-11-13T00:18:21.730Z,5.73
2018-11-13T00:18:25.935Z,5.74
2018-11-13T00:18:30.029Z,5.74
2018-11-13T00:18:34.292Z,5.74
2018-11-13T00:18:38.604Z,5.74
2018-11-13T00:18:42.647Z,5.74
2018-11-13T00:18:47.109Z,5.75
2018-11-13T00:18:51.316Z,5.75
2018-11-13T00:18:55.632Z,5.74
2018-11-13T00:18:59.844Z,5.74
2018-11-13T00:19:04.063Z,5.74
2018-11-13T00:19:08.375Z,5.75
2018-11-13T00:19:12.591Z,5.74
2018-11-13T00:19:16.803Z,5.74
2018-11-13T00:19:21.116Z,5.74
2018-11-13T00:19:25.218Z,5.75
2018-11-13T00:19:29.319Z,5.75
2018-11-13T00:19:33.528Z,5.75
2018-11-13T00:19:37.731Z,5.74
2018-11-13T00:19:41.834Z,5.74
2018-11-13T00:19:46.141Z,5.75
2018-11-13T00:19:50.343Z,5.75
2018-11-13T00:19:54.655Z,5.74
2018-11-13T00:19:58.968Z,5.75
2018-11-13T00:20:03.078Z,5.75
2018-11-13T00:20:07.179Z,5.76
2018-11-13T00:20:11.277Z,5.76
2018-11-13T00:20:15.480Z,5.75
2018-11-13T00:20:19.699Z,5.75
2018-11-13T00:20:23.916Z,5.75
2018-11-13T00:20:28.228Z,5.76
2018-11-13T00:20:32.431Z,5.76
2018-11-13T00:20:36.630Z,5.75
2018-11-13T00:20:40.828Z,5.75
2018-11-13T00:20:44.924Z,5.75
2018-11-13T00:20:49.025Z,5.75
2018-11-13T00:20:53.335Z,5.75
2018-11-13T00:20:57.430Z,5.76
2018-11-13T00:21:01.630Z,5.76
2018-11-13T00:21:05.718Z,5.75
2018-11-13T00:21:10.027Z,5.76
2018-11-13T00:21:14.238Z,5.76
2018-11-13T00:21:18.330Z,5.77
2018-11-13T00:21:22.532Z,5.76
2018-11-13T00:21:26.728Z,5.76
2018-11-13T00:21:31.038Z,5.76
2018-11-13T00:21:35.250Z,5.76
2018-11-13T00:21:39.453Z,5.77
2018-11-13T00:21:43.758Z,5.76
2018-11-13T00:21:47.855Z,5.77
2018-11-13T00:21:51.953Z,5.76
2018-11-13T00:21:56.169Z,5.76
2018-11-13T00:22:00.368Z,5.76
2018-11-13T00:22:04.407Z,5.77
2018-11-13T00:22:08.727Z,5.77
2018-11-13T00:22:12.822Z,5.76
2018-11-13T00:22:16.916Z,5.75
2018-11-13T00:22:21.113Z,5.76
2018-11-13T00:22:25.318Z,5.76
2018-11-13T00:22:29.564Z,5.76
2018-11-13T00:22:33.874Z,5.77
2018-11-13T00:22:37.973Z,5.77
2018-11-13T00:22:42.177Z,5.76
2018-11-13T00:22:46.381Z,5.76
2018-11-13T00:22:50.693Z,5.76
2018-11-13T00:22:55.001Z,5.76
2018-11-13T00:22:59.313Z,5.76
2018-11-13T00:23:03.520Z,5.76
2018-11-13T00:23:07.619Z,5.76
2018-11-13T00:23:11.931Z,5.75
2018-11-13T00:23:16.025Z,5.75
2018-11-13T00:23:20.224Z,5.75
2018-11-13T00:23:24.488Z,5.75
2018-11-13T00:23:28.791Z,5.74
2018-11-13T00:23:32.889Z,5.74
2018-11-13T00:23:37.199Z,5.74
2018-11-13T00:23:41.505Z,5.75
2018-11-13T00:23:45.810Z,5.74
2018-11-13T00:23:50.081Z,5.73
2018-11-13T00:23:54.663Z,5.73
2018-11-13T00:23:59.262Z,5.73
2018-11-13T00:24:04.130Z,5.73
2018-11-13T00:24:10.072Z,5.72
2018-11-13T00:24:14.243Z,5.73
2018-11-13T00:24:18.447Z,5.73
2018-11-13T00:24:22.768Z,5.73
2018-11-13T00:24:26.982Z,5.73
2018-11-13T00:24:31.311Z,5.72
2018-11-13T00:24:35.508Z,5.72
2018-11-13T00:24:39.711Z,5.71
2018-11-13T00:24:44.020Z,5.72
2018-11-13T00:24:48.238Z,5.72
2018-11-13T00:24:52.457Z,5.71
2018-11-13T00:24:56.659Z,5.71
2018-11-13T00:25:00.873Z,5.71
2018-11-13T00:25:05.007Z,5.71
2018-11-13T00:25:09.323Z,5.69
2018-11-13T00:25:13.420Z,5.71
2018-11-13T00:25:17.744Z,5.71
2018-11-13T00:25:22.066Z,5.7
2018-11-13T00:25:26.375Z,5.7
2018-11-13T00:25:30.682Z,5.7
2018-11-13T00:25:34.889Z,5.69
2018-11-13T00:25:39.087Z,5.69
2018-11-13T00:25:43.334Z,5.69
2018-11-13T00:25:47.538Z,5.68
2018-11-13T00:25:51.742Z,5.69
2018-11-13T00:25:56.063Z,5.68
2018-11-13T00:26:00.284Z,5.69
2018-11-13T00:26:04.320Z,5.67
2018-11-13T00:26:08.525Z,5.68
2018-11-13T00:26:12.634Z,5.67
2018-11-13T00:26:16.838Z,5.66
2018-11-13T00:26:21.151Z,5.67
2018-11-13T00:26:25.390Z,5.67
2018-11-13T00:26:29.591Z,5.67
2018-11-13T00:26:33.583Z,5.66
2018-11-13T00:26:37.889Z,5.65
2018-11-13T00:26:42.094Z,5.66
2018-11-13T00:26:46.185Z,5.65
2018-11-13T00:26:50.381Z,5.64
2018-11-13T00:26:54.726Z,5.64
2018-11-13T00:26:59.037Z,5.64
2018-11-13T00:27:03.241Z,5.65
2018-11-13T00:27:07.335Z,5.64
2018-11-13T00:27:11.431Z,5.63
2018-11-13T00:27:15.528Z,5.63
2018-11-13T00:27:19.969Z,5.63
2018-11-13T00:27:24.381Z,5.63
2018-11-13T00:27:29.021Z,5.63
2018-11-13T00:27:34.040Z,5.62
2018-11-13T00:27:38.839Z,5.62
2018-11-13T00:27:44.189Z,5.61
2018-11-13T00:27:48.887Z,5.61
2018-11-13T00:27:53.210Z,5.6
2018-11-13T00:27:57.419Z,5.61
2018-11-13T00:28:01.627Z,5.61
2018-11-13T00:28:05.728Z,5.59
2018-11-13T00:28:09.945Z,5.6
2018-11-13T00:28:14.145Z,5.59
2018-11-13T00:28:18.136Z,5.59
2018-11-13T00:28:22.347Z,5.6
2018-11-13T00:28:26.663Z,5.58
2018-11-13T00:28:31.332Z,5.59
2018-11-13T00:28:35.753Z,5.58
2018-11-13T00:28:39.746Z,5.58
2018-11-13T00:28:44.057Z,5.58
2018-11-13T00:28:48.263Z,5.57
2018-11-13T00:28:52.483Z,5.57
2018-11-13T00:28:56.682Z,5.58
2018-11-13T00:29:00.888Z,5.57
2018-11-13T00:29:05.100Z,5.57
2018-11-13T00:29:09.410Z,5.57
2018-11-13T00:29:13.606Z,5.56
2018-11-13T00:29:17.949Z,5.57
2018-11-13T00:29:22.216Z,5.56
2018-11-13T00:29:26.840Z,5.56
2018-11-13T00:29:31.598Z,5.56
2018-11-13T00:29:37.187Z,5.56
2018-11-13T00:29:41.391Z,5.55
2018-11-13T00:29:45.597Z,5.54
2018-11-13T00:29:49.594Z,5.55
2018-11-13T00:29:53.805Z,5.55
2018-11-13T00:29:58.002Z,5.55
2018-11-13T00:30:02.360Z,5.54
2018-11-13T00:30:06.456Z,5.54
2018-11-13T00:30:10.771Z,5.54
2018-11-13T00:30:14.979Z,5.53
2018-11-13T00:30:19.285Z,5.54
2018-11-13T00:30:24.332Z,5.54
2018-11-13T00:30:28.970Z,5.54
2018-11-13T00:30:33.286Z,5.54
2018-11-13T00:30:37.496Z,5.53
2018-11-13T00:30:41.804Z,5.53
2018-11-13T00:30:46.273Z,5.52
2018-11-13T00:30:50.378Z,5.53
2018-11-13T00:30:54.599Z,5.52
2018-11-13T00:30:58.876Z,5.52
2018-11-13T00:31:02.766Z,5.52
2018-11-13T00:31:07.089Z,5.52
2018-11-13T00:31:11.082Z,5.51
2018-11-13T00:31:15.299Z,5.51
2018-11-13T00:31:19.518Z,5.51
2018-11-13T00:31:23.614Z,5.51
2018-11-13T00:31:27.936Z,5.51
2018-11-13T00:31:32.029Z,5.51
2018-11-13T00:31:36.131Z,5.5
2018-11-13T00:31:40.329Z,5.5
2018-11-13T00:31:44.526Z,5.5
2018-11-13T00:31:48.881Z,5.5
2018-11-13T00:31:53.078Z,5.49
2018-11-13T00:31:57.184Z,5.49
2018-11-13T00:32:01.492Z,5.49
2018-11-13T00:32:05.640Z,5.48
2018-11-13T00:32:09.846Z,5.48
2018-11-13T00:32:14.049Z,5.48
2018-11-13T00:32:18.251Z,5.48
2018-11-13T00:32:22.257Z,5.47
2018-11-13T00:32:26.396Z,5.47
2018-11-13T00:32:30.605Z,5.48
2018-11-13T00:32:34.914Z,5.47
2018-11-13T00:32:39.128Z,5.47
2018-11-13T00:32:43.453Z,5.47
2018-11-13T00:32:47.660Z,5.46
2018-11-13T00:32:51.985Z,5.46
2018-11-13T00:32:56.295Z,5.46
2018-11-13T00:33:00.596Z,5.46
2018-11-13T00:33:04.865Z,5.46
2018-11-13T00:33:09.174Z,5.46
2018-11-13T00:33:13.483Z,5.45
2018-11-13T00:33:17.680Z,5.45
2018-11-13T00:33:21.988Z,5.44
2018-11-13T00:33:26.202Z,5.44
2018-11-13T00:33:30.417Z,5.45
2018-11-13T00:33:34.621Z,5.43
2018-11-13T00:33:38.720Z,5.43
2018-11-13T00:33:43.031Z,5.43
2018-11-13T00:33:47.349Z,5.43
2018-11-13T00:33:51.664Z,5.43
2018-11-13T00:33:55.765Z,5.42
2018-11-13T00:33:59.973Z,5.42
2018-11-13T00:34:04.079Z,5.42
2018-11-13T00:34:08.283Z,5.42
2018-11-13T00:34:12.591Z,5.4
2018-11-13T00:34:16.902Z,5.41
2018-11-13T00:34:21.205Z,5.41
2018-11-13T00:34:25.406Z,5.41
2018-11-13T00:34:29.502Z,5.41
2018-11-13T00:34:33.808Z,5.4
2018-11-13T00:34:38.010Z,5.41
2018-11-13T00:34:42.314Z,5.4
2018-11-13T00:34:46.305Z,5.4
2018-11-13T00:34:50.612Z,5.4
2018-11-13T00:34:54.603Z,5.4
2018-11-13T00:34:58.912Z,5.4
2018-11-13T00:35:03.232Z,5.39
2018-11-13T00:35:07.441Z,5.38
2018-11-13T00:35:11.430Z,5.38
2018-11-13T00:35:15.637Z,5.38
2018-11-13T00:35:19.857Z,5.37
2018-11-13T00:35:24.086Z,5.36
2018-11-13T00:35:28.398Z,5.36
2018-11-13T00:35:32.704Z,5.36
2018-11-13T00:35:36.912Z,5.37
2018-11-13T00:35:41.219Z,5.36
2018-11-13T00:35:45.418Z,5.35
2018-11-13T00:35:49.509Z,5.35
2018-11-13T00:35:53.602Z,5.34
2018-11-13T00:35:57.700Z,5.35
2018-11-13T00:36:01.901Z,5.35
2018-11-13T00:36:05.937Z,5.34
2018-11-13T00:36:10.252Z,5.33
2018-11-13T00:36:14.448Z,5.34
2018-11-13T00:36:18.646Z,5.34
2018-11-13T00:36:22.739Z,5.33
2018-11-13T00:36:26.726Z,5.34
2018-11-13T00:36:30.940Z,5.33
2018-11-13T00:36:35.149Z,5.33
2018-11-13T00:36:39.354Z,5.33
2018-11-13T00:36:43.560Z,5.31
2018-11-13T00:36:47.761Z,5.31
2018-11-13T00:36:52.075Z,5.31
2018-11-13T00:36:56.273Z,5.31
2018-11-13T00:37:00.474Z,5.3
2018-11-13T00:37:04.590Z,5.31
2018-11-13T00:37:08.793Z,5.31
2018-11-13T00:37:13.004Z,5.31
2018-11-13T00:37:17.311Z,5.29
2018-11-13T00:37:21.516Z,5.29
2018-11-13T00:37:25.620Z,5.29
2018-11-13T00:37:29.724Z,5.29
2018-11-13T00:37:33.929Z,5.28
2018-11-13T00:37:38.128Z,5.27
2018-11-13T00:37:42.436Z,5.28
2018-11-13T00:37:46.636Z,5.28
2018-11-13T00:37:50.950Z,5.27
2018-11-13T00:37:55.255Z,5.28
2018-11-13T00:37:59.453Z,5.27
2018-11-13T00:38:03.677Z,5.26
2018-11-13T00:38:07.772Z,5.26
2018-11-13T00:38:12.109Z,5.26
2018-11-13T00:38:16.137Z,5.26
2018-11-13T00:38:20.454Z,5.26
2018-11-13T00:38:24.551Z,5.25
2018-11-13T00:38:28.762Z,5.26
2018-11-13T00:38:33.076Z,5.26
2018-11-13T00:38:37.171Z,5.26
2018-11-13T00:38:41.166Z,5.25
2018-11-13T00:38:45.387Z,5.25
2018-11-13T00:38:49.482Z,5.25
2018-11-13T00:38:53.792Z,5.26
2018-11-13T00:38:57.896Z,5.24
2018-11-13T00:39:01.970Z,5.24
2018-11-13T00:39:06.150Z,5.23
2018-11-13T00:39:10.501Z,5.23
2018-11-13T00:39:15.156Z,5.24
2018-11-13T00:39:21.157Z,5.23
2018-11-13T00:39:24.889Z,5.23
2018-11-13T00:39:28.981Z,5.24
2018-11-13T00:39:33.182Z,5.23
2018-11-13T00:39:37.487Z,5.23
2018-11-13T00:39:41.694Z,5.23
2018-11-13T00:39:46.047Z,5.23
2018-11-13T00:39:50.435Z,5.22
2018-11-13T00:39:54.949Z,5.23
2018-11-13T00:39:58.941Z,5.22
2018-11-13T00:40:03.170Z,5.22
2018-11-13T00:40:07.270Z,5.23
2018-11-13T00:40:11.580Z,5.22
2018-11-13T00:40:15.908Z,5.22
2018-11-13T00:40:21.565Z,5.22
2018-11-13T00:40:25.879Z,5.22
2018-11-13T00:40:30.203Z,5.23
2018-11-13T00:40:34.415Z,5.22
2018-11-13T00:40:38.617Z,5.22
2018-11-13T00:40:42.930Z,5.22
2018-11-13T00:40:47.033Z,5.22
2018-11-13T00:40:51.238Z,5.22
2018-11-13T00:40:55.545Z,5.22
2018-11-13T00:40:59.545Z,5.21
2018-11-13T00:41:03.750Z,5.21
2018-11-13T00:41:08.075Z,5.21
2018-11-13T00:41:12.290Z,5.21
2018-11-13T00:41:16.605Z,5.22
2018-11-13T00:41:20.919Z,5.21
2018-11-13T00:41:25.013Z,5.22
2018-11-13T00:41:29.214Z,5.22
2018-11-13T00:41:33.319Z,5.21
2018-11-13T00:41:37.416Z,5.2
2018-11-13T00:41:41.623Z,5.21
2018-11-13T00:41:45.768Z,5.21
2018-11-13T00:41:49.872Z,5.21
2018-11-13T00:41:54.127Z,5.21
2018-11-13T00:41:58.117Z,5.22
2018-11-13T00:42:02.208Z,5.22
2018-11-13T00:42:06.484Z,5.21
2018-11-13T00:42:10.718Z,5.22
2018-11-13T00:42:14.918Z,5.21
2018-11-13T00:42:19.013Z,5.21
2018-11-13T00:42:23.217Z,5.21
2018-11-13T00:42:27.417Z,5.21
2018-11-13T00:42:31.626Z,5.22
2018-11-13T00:42:35.942Z,5.21
2018-11-13T00:42:40.264Z,5.21
2018-11-13T00:42:44.474Z,5.21
2018-11-13T00:42:48.685Z,5.22
2018-11-13T00:42:53.015Z,5.21
2018-11-13T00:42:57.321Z,5.21
2018-11-13T00:43:01.627Z,5.21
2018-11-13T00:43:05.828Z,5.22
2018-11-13T00:43:10.147Z,5.22
2018-11-13T00:43:14.342Z,5.22
2018-11-13T00:43:18.536Z,5.22
2018-11-13T00:43:22.843Z,5.22
2018-11-13T00:43:26.935Z,5.21
2018-11-13T00:43:31.263Z,5.2
2018-11-13T00:43:36.157Z,5.21
2018-11-13T00:43:40.357Z,5.21
2018-11-13T00:43:44.457Z,5.21
2018-11-13T00:43:48.656Z,5.21
2018-11-13T00:43:52.973Z,5.22
2018-11-13T00:43:57.173Z,5.22
2018-11-13T00:44:01.370Z,5.21
2018-11-13T00:44:05.469Z,5.21
2018-11-13T00:44:09.573Z,5.22
2018-11-13T00:44:13.881Z,5.21
2018-11-13T00:44:18.248Z,5.21
2018-11-13T00:44:22.447Z,5.22
2018-11-13T00:44:26.437Z,5.21
2018-11-13T00:44:30.636Z,5.22
2018-11-13T00:44:34.844Z,5.22
2018-11-13T00:44:39.146Z,5.23
2018-11-13T00:44:43.345Z,5.22
2018-11-13T00:44:47.649Z,5.22
2018-11-13T00:44:51.636Z,5.22
2018-11-13T00:44:55.840Z,5.22
2018-11-13T00:45:00.154Z,5.22
2018-11-13T00:45:04.265Z,5.22
2018-11-13T00:45:08.252Z,5.23
2018-11-13T00:45:12.715Z,5.23
2018-11-13T00:45:17.089Z,5.23
2018-11-13T00:45:22.144Z,5.23
2018-11-13T00:45:26.718Z,5.23
2018-11-13T00:45:31.655Z,5.23
2018-11-13T00:45:36.491Z,5.23
2018-11-13T00:45:41.640Z,5.23
2018-11-13T00:45:47.325Z,5.24
2018-11-13T00:45:52.260Z,5.24
2018-11-13T00:45:57.731Z,5.24
2018-11-13T00:46:02.388Z,5.24
2018-11-13T00:46:07.488Z,5.24
2018-11-13T00:46:11.799Z,5.24
2018-11-13T00:46:16.007Z,5.24
2018-11-13T00:46:20.317Z,5.25
2018-11-13T00:46:24.533Z,5.25
2018-11-13T00:46:28.849Z,5.25
2018-11-13T00:46:33.057Z,5.25
2018-11-13T00:46:37.254Z,5.26
2018-11-13T00:46:41.458Z,5.26
2018-11-13T00:46:45.675Z,5.26
2018-11-13T00:46:49.663Z,5.26
2018-11-13T00:46:53.759Z,5.26
2018-11-13T00:46:58.068Z,5.27
2018-11-13T00:47:02.269Z,5.26
2018-11-13T00:47:06.470Z,5.27
2018-11-13T00:47:10.706Z,5.28
2018-11-13T00:47:15.017Z,5.27
2018-11-13T00:47:19.327Z,5.27
2018-11-13T00:47:23.633Z,5.27
2018-11-13T00:47:27.884Z,5.28
2018-11-13T00:47:32.194Z,5.27
2018-11-13T00:47:36.509Z,5.29
2018-11-13T00:47:40.816Z,5.28
2018-11-13T00:47:45.021Z,5.29
2018-11-13T00:47:49.239Z,5.28
2018-11-13T00:47:53.456Z,5.28
2018-11-13T00:47:57.775Z,5.29
2018-11-13T00:48:01.974Z,5.29
2018-11-13T00:48:05.967Z,5.29
2018-11-13T00:48:10.392Z,5.29
2018-11-13T00:48:14.796Z,5.3
2018-11-13T00:48:19.338Z,5.3
2018-11-13T00:48:24.101Z,5.3
2018-11-13T00:48:30.374Z,5.3
2018-11-13T00:48:34.580Z,5.31
2018-11-13T00:48:38.892Z,5.31
2018-11-13T00:48:42.981Z,5.3
2018-11-13T00:48:47.071Z,5.3
2018-11-13T00:48:51.383Z,5.32
2018-11-13T00:48:55.581Z,5.31
2018-11-13T00:48:59.616Z,5.31
2018-11-13T00:49:05.083Z,5.32
2018-11-13T00:49:09.195Z,5.32
2018-11-13T00:49:13.506Z,5.32
2018-11-13T00:49:17.611Z,5.32
2018-11-13T00:49:21.930Z,5.32
2018-11-13T00:49:27.133Z,5.34
2018-11-13T00:49:31.009Z,5.33
2018-11-13T00:49:35.212Z,5.32
2018-11-13T00:49:39.524Z,5.33
2018-11-13T00:49:43.844Z,5.34
2018-11-13T00:49:48.043Z,5.34
2018-11-13T00:49:52.031Z,5.34
2018-11-13T00:49:56.239Z,5.34
2018-11-13T00:50:00.438Z,5.34
2018-11-13T00:50:04.536Z,5.35
2018-11-13T00:50:09.261Z,5.34
2018-11-13T00:50:13.418Z,5.34
2018-11-13T00:50:17.740Z,5.35
2018-11-13T00:50:21.984Z,5.34
2018-11-13T00:50:26.341Z,5.35
2018-11-13T00:50:30.773Z,5.35
2018-11-13T00:50:35.085Z,5.35
2018-11-13T00:50:39.451Z,5.36
2018-11-13T00:50:44.909Z,5.36
2018-11-13T00:50:49.755Z,5.36
2018-11-13T00:50:53.847Z,5.36
2018-11-13T00:50:59.217Z,5.36
2018-11-13T00:51:03.536Z,5.36
2018-11-13T00:51:07.756Z,5.36
2018-11-13T00:51:12.072Z,5.36
2018-11-13T00:51:16.279Z,5.37
2018-11-13T00:51:20.483Z,5.36
2018-11-13T00:51:24.683Z,5.37
2018-11-13T00:51:28.880Z,5.37
2018-11-13T00:51:33.096Z,5.37
2018-11-13T00:51:37.300Z,5.37
2018-11-13T00:51:41.395Z,5.38
2018-11-13T00:51:45.597Z,5.38
2018-11-13T00:51:49.798Z,5.38
2018-11-13T00:51:54.119Z,5.4
2018-11-13T00:51:58.323Z,5.4
2018-11-13T00:52:02.415Z,5.4
2018-11-13T00:52:06.507Z,5.4
2018-11-13T00:52:10.818Z,5.41
2018-11-13T00:52:14.921Z,5.41
2018-11-13T00:52:19.123Z,5.41
2018-11-13T00:52:23.323Z,5.41
2018-11-13T00:52:27.633Z,5.4
2018-11-13T00:52:31.998Z,5.41
2018-11-13T00:52:36.205Z,5.4
2018-11-13T00:52:40.417Z,5.42
2018-11-13T00:52:44.723Z,5.41
2018-11-13T00:52:48.860Z,5.41
2018-11-13T00:52:53.130Z,5.41
2018-11-13T00:52:57.450Z,5.42
2018-11-13T00:53:01.543Z,5.41
2018-11-13T00:53:05.536Z,5.42
2018-11-13T00:53:09.881Z,5.42
2018-11-13T00:53:14.192Z,5.42
2018-11-13T00:53:18.389Z,5.42
2018-11-13T00:53:22.671Z,5.42
2018-11-13T00:53:26.988Z,5.41
2018-11-13T00:53:31.286Z,5.42
2018-11-13T00:53:35.504Z,5.41
2018-11-13T00:53:39.606Z,5.42
2018-11-13T00:53:43.853Z,5.42
2018-11-13T00:53:48.165Z,5.41
2018-11-13T00:53:52.372Z,5.41
2018-11-13T00:53:56.575Z,5.42
2018-11-13T00:54:00.783Z,5.42
2018-11-13T00:54:04.830Z,5.41
2018-11-13T00:54:09.024Z,5.42
2018-11-13T00:54:13.334Z,5.41
2018-11-13T00:54:17.647Z,5.41
2018-11-13T00:54:21.734Z,5.42
2018-11-13T00:54:25.723Z,5.41
2018-11-13T00:54:29.821Z,5.41
2018-11-13T00:54:33.994Z,5.41
2018-11-13T00:54:38.121Z,5.42
2018-11-13T00:54:42.398Z,5.41
2018-11-13T00:54:47.270Z,5.42
2018-11-13T00:54:51.717Z,5.41
2018-11-13T00:54:56.367Z,5.41
2018-11-13T00:55:01.131Z,5.41
2018-11-13T00:55:07.179Z,5.41
2018-11-13T00:55:11.728Z,5.41
2018-11-13T00:55:15.840Z,5.41
2018-11-13T00:55:20.276Z,5.4
2018-11-13T00:55:24.589Z,5.41
2018-11-13T00:55:28.796Z,5.4
2018-11-13T00:55:33.582Z,5.39
2018-11-13T00:55:37.781Z,5.39
2018-11-13T00:55:41.873Z,5.4
2018-11-13T00:55:45.970Z,5.4
2018-11-13T00:55:50.079Z,5.39
2018-11-13T00:55:54.174Z,5.39
2018-11-13T00:55:58.376Z,5.38
2018-11-13T00:56:02.588Z,5.38
2018-11-13T00:56:06.680Z,5.4
2018-11-13T00:56:10.781Z,5.37
2018-11-13T00:56:14.984Z,5.37
2018-11-13T00:56:19.187Z,5.37
2018-11-13T00:56:23.386Z,5.37
2018-11-13T00:56:27.591Z,5.37
2018-11-13T00:56:31.788Z,5.36
2018-11-13T00:56:36.101Z,5.36
2018-11-13T00:56:40.196Z,5.37
2018-11-13T00:56:44.429Z,5.36
2018-11-13T00:56:49.265Z,5.36
2018-11-13T00:56:53.478Z,5.36
2018-11-13T00:56:58.199Z,5.35